Saipan, MP

5:26 PM ChST on September 21, 2014 (GMT +1000)
Red Cross-Airport | Change Station
CLOSE
Current Station
Personal Weather Station
Location: Saipan, MP
Elevation: 215 ft
Nearby Weather Stations

Elev 215 ft 15.13 °N, 145.72 °E | Updated 14 minutes ago

Partly Cloudy
Partly Cloudy
84.7 °F
Feels Like 103 °F
N
4.0
Wind Variable Wind from ENE
Gusts 10.0 mph

Today
High -- | Low -- °F
--% Chance of Precip.
Yesterday
High -- | Low -- °F
Precip. -- in
6:05 AM 6:14 PM
Waning Crescent, 8% visible
Pressure 29.85 in
Visibility 10.0 miles
Clouds Few 2000 ft
Heat Index 103 °F
Dew Point 83 °F
Humidity 95%
Rainfall -999.00 in
Snow Depth Not available.
UV 1 out of 12
Pollen Not available.
Air Quality Not available.
Flu Activity Not available.
METAR PGSN 210654Z 08009KT 10SM FEW020 29/26 A2979 RMK AO2 SLP107 T02940256 $

More Conditions Fewer Conditions

Pressure 29.85 in
Visibility 10.0 miles
Clouds Few 2000 ft
Heat Index 103 °F
Dew Point 83 °F
Humidity 95%
Rainfall -999.00 in
Snow Depth Not available.
UV 1 out of 12
Pollen Not available.
Air Quality Not available.
Flu Activity Not available.
METAR PGSN 210654Z 08009KT 10SM FEW020 29/26 A2979 RMK AO2 SLP107 T02940256 $

More Conditions Fewer Conditions

10-Day Weather Forecast

Almanac

Astronomy

Sep. 21, 2014 Rise Set
Actual Time 6:05 AM ChST 6:14 PM ChST
Civil Twilight 5:44 AM ChST 6:35 PM ChST
Nautical Twilight 5:19 AM ChST 7:00 PM ChST
Astronomical Twilight 4:54 AM ChST 7:25 PM ChST
Moon 3:26 AM ChST 4:10 PM ChST
Length of Visible Light 12h 51m
Length of Day
12h 08m
Tomorrow will be 0m 51s shorter.
Waning Crescent, 8% of the Moon is Illuminated
Today
Waning Crescent
Sep 24
New
Oct 1
First Quarter
Oct 8
Full
Oct 15
Last Quarter

Community

WunderPhotos

Upload Photos

1,755,101 photos uploaded!

Nearby

Snow Depth

Station Depth Elevation
No new snow has been reported.

Earthquake Activity

City Distance Mag. Time & Date
No recent earthquake activity has been reported nearby.
Minimum magnitude displayed is 2.5.

Coastal Water Temperatures

Place Temperature
No Stations Reporting

Nearby Weather Stations